sensor_id;sensor_type;location;lat;lon;timestamp;pressure;altitude;pressure_sealevel;temperature;humidity
84712;BME280;74937;44.534;18.684;2024-02-04T00:01:55;99575.41;;;5.16;62.96
84712;BME280;74937;44.534;18.684;2024-02-04T00:04:22;99578.91;;;5.15;63.37
84712;BME280;74937;44.534;18.684;2024-02-04T00:06:49;99572.91;;;5.13;63.23
84712;BME280;74937;44.534;18.684;2024-02-04T00:09:14;99571.72;;;5.20;62.90
84712;BME280;74937;44.534;18.684;2024-02-04T00:11:40;99563.31;;;5.13;63.06
84712;BME280;74937;44.534;18.684;2024-02-04T00:14:06;99561.41;;;5.17;62.99
84712;BME280;74937;44.534;18.684;2024-02-04T00:16:31;99562.19;;;5.19;62.87
84712;BME280;74937;44.534;18.684;2024-02-04T00:18:57;99556.88;;;5.21;62.70
84712;BME280;74937;44.534;18.684;2024-02-04T00:21:23;99561.91;;;5.25;62.47
84712;BME280;74937;44.534;18.684;2024-02-04T00:23:48;99559.47;;;5.22;62.63
84712;BME280;74937;44.534;18.684;2024-02-04T00:26:14;99570.09;;;5.17;63.00
84712;BME280;74937;44.534;18.684;2024-02-04T00:28:40;99566.38;;;5.23;62.92
84712;BME280;74937;44.534;18.684;2024-02-04T00:31:08;99565.31;;;5.27;62.53
84712;BME280;74937;44.534;18.684;2024-02-04T00:33:34;99557.84;;;5.38;61.98
84712;BME280;74937;44.534;18.684;2024-02-04T00:36:00;99567.03;;;5.28;62.49
84712;BME280;74937;44.534;18.684;2024-02-04T00:38:26;99569.91;;;5.22;62.35
84712;BME280;74937;44.534;18.684;2024-02-04T00:40:52;99574.41;;;5.18;62.81
84712;BME280;74937;44.534;18.684;2024-02-04T00:43:20;99571.88;;;5.17;62.73
84712;BME280;74937;44.534;18.684;2024-02-04T00:45:46;99569.44;;;5.12;62.66
84712;BME280;74937;44.534;18.684;2024-02-04T00:48:30;99567.19;;;5.05;63.30
84712;BME280;74937;44.534;18.684;2024-02-04T00:50:55;99569.13;;;5.00;63.55
84712;BME280;74937;44.534;18.684;2024-02-04T00:53:21;99567.28;;;5.02;63.21
84712;BME280;74937;44.534;18.684;2024-02-04T00:55:47;99565.34;;;5.07;63.30
84712;BME280;74937;44.534;18.684;2024-02-04T00:58:12;99566.19;;;5.07;63.49
84712;BME280;74937;44.534;18.684;2024-02-04T01:00:38;99555.47;;;5.13;63.22
84712;BME280;74937;44.534;18.684;2024-02-04T01:03:04;99566.16;;;5.09;63.10
84712;BME280;74937;44.534;18.684;2024-02-04T01:05:30;99554.31;;;5.00;63.85
84712;BME280;74937;44.534;18.684;2024-02-04T01:07:55;99569.78;;;5.05;63.86
84712;BME280;74937;44.534;18.684;2024-02-04T01:10:21;99554.63;;;5.13;63.54
84712;BME280;74937;44.534;18.684;2024-02-04T01:12:47;99547.44;;;5.18;63.41
84712;BME280;74937;44.534;18.684;2024-02-04T01:15:13;99562.97;;;5.21;62.97
84712;BME280;74937;44.534;18.684;2024-02-04T01:17:38;99559.84;;;5.13;63.03
84712;BME280;74937;44.534;18.684;2024-02-04T01:20:04;99568.34;;;5.18;63.43
84712;BME280;74937;44.534;18.684;2024-02-04T01:22:30;99564.03;;;5.17;63.50
84712;BME280;74937;44.534;18.684;2024-02-04T01:24:56;99561.84;;;5.27;63.22
84712;BME280;74937;44.534;18.684;2024-02-04T01:27:22;99564.53;;;5.25;63.54
84712;BME280;74937;44.534;18.684;2024-02-04T01:29:48;99550.44;;;5.29;62.83
84712;BME280;74937;44.534;18.684;2024-02-04T01:32:13;99544.28;;;5.30;62.98
84712;BME280;74937;44.534;18.684;2024-02-04T01:34:40;99541.09;;;5.24;63.08
84712;BME280;74937;44.534;18.684;2024-02-04T01:37:05;99541.94;;;5.24;63.04
84712;BME280;74937;44.534;18.684;2024-02-04T01:39:31;99527.25;;;5.22;63.25
84712;BME280;74937;44.534;18.684;2024-02-04T01:41:57;99531.47;;;5.24;63.27
84712;BME280;74937;44.534;18.684;2024-02-04T01:44:23;99531.47;;;5.24;63.37
84712;BME280;74937;44.534;18.684;2024-02-04T01:46:49;99529.50;;;5.29;63.23
84712;BME280;74937;44.534;18.684;2024-02-04T01:49:15;99531.06;;;5.33;63.07
84712;BME280;74937;44.534;18.684;2024-02-04T01:51:41;99542.22;;;5.37;62.80
84712;BME280;74937;44.534;18.684;2024-02-04T01:54:07;99526.00;;;5.49;62.46
84712;BME280;74937;44.534;18.684;2024-02-04T01:56:33;99524.84;;;5.36;63.00
84712;BME280;74937;44.534;18.684;2024-02-04T01:59:00;99524.28;;;5.29;63.22
84712;BME280;74937;44.534;18.684;2024-02-04T02:01:26;99520.75;;;5.30;63.57
84712;BME280;74937;44.534;18.684;2024-02-04T02:03:52;99526.09;;;5.27;63.87
84712;BME280;74937;44.534;18.684;2024-02-04T02:06:18;99519.75;;;5.33;63.58
84712;BME280;74937;44.534;18.684;2024-02-04T02:08:44;99505.44;;;5.41;63.03
84712;BME280;74937;44.534;18.684;2024-02-04T02:11:42;99501.34;;;5.36;63.46
84712;BME280;74937;44.534;18.684;2024-02-04T02:14:15;99492.13;;;5.27;63.74
84712;BME280;74937;44.534;18.684;2024-02-04T02:16:44;99503.75;;;5.22;64.28
84712;BME280;74937;44.534;18.684;2024-02-04T02:22:38;99497.06;;;5.14;64.28
84712;BME280;74937;44.534;18.684;2024-02-04T02:25:06;99488.09;;;5.20;64.15
84712;BME280;74937;44.534;18.684;2024-02-04T02:27:33;99476.81;;;5.20;64.19
84712;BME280;74937;44.534;18.684;2024-02-04T02:29:58;99477.88;;;5.15;64.53
84712;BME280;74937;44.534;18.684;2024-02-04T02:32:24;99490.06;;;5.15;64.55
84712;BME280;74937;44.534;18.684;2024-02-04T02:34:50;99483.13;;;5.15;64.73
84712;BME280;74937;44.534;18.684;2024-02-04T02:37:20;99485.66;;;5.17;64.90
84712;BME280;74937;44.534;18.684;2024-02-04T02:40:08;99489.66;;;5.24;64.78
84712;BME280;74937;44.534;18.684;2024-02-04T02:42:38;99481.63;;;5.29;64.67
84712;BME280;74937;44.534;18.684;2024-02-04T02:45:06;99489.25;;;5.33;64.68
84712;BME280;74937;44.534;18.684;2024-02-04T02:47:32;99483.09;;;5.34;64.31
84712;BME280;74937;44.534;18.684;2024-02-04T02:50:00;99486.41;;;5.38;63.93
84712;BME280;74937;44.534;18.684;2024-02-04T02:52:26;99487.13;;;5.41;63.70
84712;BME280;74937;44.534;18.684;2024-02-04T02:54:52;99484.53;;;5.41;63.89
84712;BME280;74937;44.534;18.684;2024-02-04T02:57:18;99490.38;;;5.47;63.88
84712;BME280;74937;44.534;18.684;2024-02-04T02:59:44;99481.47;;;5.51;63.53
84712;BME280;74937;44.534;18.684;2024-02-04T03:02:09;99491.28;;;5.45;64.00
84712;BME280;74937;44.534;18.684;2024-02-04T03:04:36;99480.53;;;5.52;63.70
84712;BME280;74937;44.534;18.684;2024-02-04T03:07:02;99491.44;;;5.42;63.98
84712;BME280;74937;44.534;18.684;2024-02-04T03:09:28;99491.44;;;5.42;64.28
84712;BME280;74937;44.534;18.684;2024-02-04T03:11:54;99494.91;;;5.43;63.99
84712;BME280;74937;44.534;18.684;2024-02-04T03:14:19;99487.81;;;5.45;64.08
84712;BME280;74937;44.534;18.684;2024-02-04T03:16:45;99476.38;;;5.48;63.94
84712;BME280;74937;44.534;18.684;2024-02-04T03:19:11;99474.56;;;5.50;63.92
84712;BME280;74937;44.534;18.684;2024-02-04T03:21:37;99475.75;;;5.42;64.01
84712;BME280;74937;44.534;18.684;2024-02-04T03:24:04;99475.97;;;5.38;64.85
84712;BME280;74937;44.534;18.684;2024-02-04T03:26:30;99475.81;;;5.41;64.58
84712;BME280;74937;44.534;18.684;2024-02-04T03:28:56;99483.72;;;5.39;64.98
84712;BME280;74937;44.534;18.684;2024-02-04T03:31:22;99492.50;;;5.38;64.66
84712;BME280;74937;44.534;18.684;2024-02-04T03:33:49;99486.13;;;5.44;64.39
84712;BME280;74937;44.534;18.684;2024-02-04T03:36:19;99485.13;;;5.47;64.58
84712;BME280;74937;44.534;18.684;2024-02-04T03:38:47;99479.91;;;5.47;64.67
84712;BME280;74937;44.534;18.684;2024-02-04T03:41:12;99474.69;;;5.47;64.67
84712;BME280;74937;44.534;18.684;2024-02-04T03:43:38;99478.56;;;5.38;64.58
84712;BME280;74937;44.534;18.684;2024-02-04T03:46:04;99471.75;;;5.35;65.06
84712;BME280;74937;44.534;18.684;2024-02-04T03:48:30;99462.97;;;5.36;64.87
84712;BME280;74937;44.534;18.684;2024-02-04T03:50:55;99457.66;;;5.38;64.89
84712;BME280;74937;44.534;18.684;2024-02-04T03:53:21;99456.66;;;5.40;65.03
84712;BME280;74937;44.534;18.684;2024-02-04T03:55:49;99447.00;;;5.42;64.81
84712;BME280;74937;44.534;18.684;2024-02-04T03:58:15;99448.97;;;5.37;64.85
84712;BME280;74937;44.534;18.684;2024-02-04T04:00:40;99458.31;;;5.24;65.09
84712;BME280;74937;44.534;18.684;2024-02-04T04:03:06;99455.22;;;5.16;65.74
84712;BME280;74937;44.534;18.684;2024-02-04T04:05:32;99458.72;;;5.15;65.71
84712;BME280;74937;44.534;18.684;2024-02-04T04:07:57;99464.09;;;5.12;65.78
84712;BME280;74937;44.534;18.684;2024-02-04T04:10:23;99460.00;;;5.06;65.68
84712;BME280;74937;44.534;18.684;2024-02-04T04:12:49;99463.59;;;5.04;65.90
84712;BME280;74937;44.534;18.684;2024-02-04T04:15:15;99461.91;;;5.03;65.97
84712;BME280;74937;44.534;18.684;2024-02-04T04:17:40;99461.97;;;5.01;66.04
84712;BME280;74937;44.534;18.684;2024-02-04T04:20:07;99457.75;;;4.99;66.21
84712;BME280;74937;44.534;18.684;2024-02-04T04:22:33;99466.34;;;5.01;66.18
84712;BME280;74937;44.534;18.684;2024-02-04T04:24:59;99464.81;;;4.97;65.91
84712;BME280;74937;44.534;18.684;2024-02-04T04:27:24;99467.69;;;4.90;66.55
84712;BME280;74937;44.534;18.684;2024-02-04T04:29:50;99468.88;;;4.83;66.71
84712;BME280;74937;44.534;18.684;2024-02-04T04:32:16;99462.25;;;4.76;67.11
84712;BME280;74937;44.534;18.684;2024-02-04T04:34:41;99478.78;;;4.75;66.98
84712;BME280;74937;44.534;18.684;2024-02-04T04:37:07;99496.09;;;4.78;67.18
84712;BME280;74937;44.534;18.684;2024-02-04T04:39:33;99501.34;;;4.78;66.73
84712;BME280;74937;44.534;18.684;2024-02-04T04:41:59;99500.59;;;4.74;66.12
84712;BME280;74937;44.534;18.684;2024-02-04T04:44:24;99506.34;;;4.62;66.52
84712;BME280;74937;44.534;18.684;2024-02-04T04:46:50;99512.13;;;4.70;66.60
84712;BME280;74937;44.534;18.684;2024-02-04T04:49:16;99503.97;;;4.57;66.84
84712;BME280;74937;44.534;18.684;2024-02-04T04:51:45;99489.25;;;4.55;66.70
84712;BME280;74937;44.534;18.684;2024-02-04T04:54:13;99491.81;;;4.56;67.02
84712;BME280;74937;44.534;18.684;2024-02-04T04:56:40;99486.78;;;4.52;67.42
84712;BME280;74937;44.534;18.684;2024-02-04T04:59:06;99487.81;;;4.48;67.47
84712;BME280;74937;44.534;18.684;2024-02-04T05:01:32;99472.44;;;4.42;67.97
84712;BME280;74937;44.534;18.684;2024-02-04T05:03:58;99471.16;;;4.31;68.01
84712;BME280;74937;44.534;18.684;2024-02-04T05:06:24;99457.44;;;4.26;68.50
84712;BME280;74937;44.534;18.684;2024-02-04T05:08:49;99458.28;;;4.27;68.30
84712;BME280;74937;44.534;18.684;2024-02-04T05:11:15;99458.88;;;4.33;68.31
84712;BME280;74937;44.534;18.684;2024-02-04T05:13:41;99476.09;;;4.38;68.53
84712;BME280;74937;44.534;18.684;2024-02-04T05:16:06;99480.47;;;4.37;68.23
84712;BME280;74937;44.534;18.684;2024-02-04T05:18:32;99482.16;;;4.38;68.30
84712;BME280;74937;44.534;18.684;2024-02-04T05:20:58;99475.25;;;4.37;68.36
84712;BME280;74937;44.534;18.684;2024-02-04T05:23:23;99477.66;;;4.42;68.25
84712;BME280;74937;44.534;18.684;2024-02-04T05:25:50;99486.06;;;4.48;67.62
84712;BME280;74937;44.534;18.684;2024-02-04T05:28:15;99480.06;;;4.46;67.47
84712;BME280;74937;44.534;18.684;2024-02-04T05:30:41;99488.66;;;4.48;67.76
84712;BME280;74937;44.534;18.684;2024-02-04T05:33:07;99483.66;;;4.44;67.98
84712;BME280;74937;44.534;18.684;2024-02-04T05:35:32;99496.72;;;4.44;67.78
84712;BME280;74937;44.534;18.684;2024-02-04T05:37:58;99496.72;;;4.44;67.51
84712;BME280;74937;44.534;18.684;2024-02-04T05:40:24;99494.88;;;4.46;67.40
84712;BME280;74937;44.534;18.684;2024-02-04T05:42:50;99491.34;;;4.47;67.85
84712;BME280;74937;44.534;18.684;2024-02-04T05:45:16;99481.91;;;4.24;69.32
84712;BME280;74937;44.534;18.684;2024-02-04T05:47:42;99476.94;;;4.18;69.16
84712;BME280;74937;44.534;18.684;2024-02-04T05:50:08;99484.63;;;4.21;69.26
84712;BME280;74937;44.534;18.684;2024-02-04T05:52:34;99475.03;;;4.21;69.32
84712;BME280;74937;44.534;18.684;2024-02-04T05:54:59;99478.16;;;4.29;69.03
84712;BME280;74937;44.534;18.684;2024-02-04T05:57:25;99473.78;;;4.30;69.21
84712;BME280;74937;44.534;18.684;2024-02-04T05:59:51;99475.28;;;4.35;68.46
84712;BME280;74937;44.534;18.684;2024-02-04T06:02:18;99468.53;;;4.31;68.28
84712;BME280;74937;44.534;18.684;2024-02-04T06:04:44;99484.78;;;4.38;68.06
84712;BME280;74937;44.534;18.684;2024-02-04T06:07:09;99483.97;;;4.36;68.11
84712;BME280;74937;44.534;18.684;2024-02-04T06:09:35;99491.50;;;4.44;68.07
84712;BME280;74937;44.534;18.684;2024-02-04T06:12:01;99487.44;;;4.36;67.91
84712;BME280;74937;44.534;18.684;2024-02-04T06:14:27;99486.47;;;4.39;67.59
84712;BME280;74937;44.534;18.684;2024-02-04T06:16:53;99489.06;;;4.39;67.76
84712;BME280;74937;44.534;18.684;2024-02-04T06:19:19;99486.53;;;4.38;67.30
84712;BME280;74937;44.534;18.684;2024-02-04T06:21:45;99490.56;;;4.24;68.11
84712;BME280;74937;44.534;18.684;2024-02-04T06:24:10;99486.47;;;4.19;68.35
84712;BME280;74937;44.534;18.684;2024-02-04T06:26:38;99489.00;;;4.20;68.40
84712;BME280;74937;44.534;18.684;2024-02-04T06:29:05;99495.44;;;4.12;68.52
84712;BME280;74937;44.534;18.684;2024-02-04T06:31:30;99480.75;;;4.09;68.68
84712;BME280;74937;44.534;18.684;2024-02-04T06:33:56;99493.63;;;4.14;68.63
84712;BME280;74937;44.534;18.684;2024-02-04T06:36:22;99497.84;;;4.16;68.52
84712;BME280;74937;44.534;18.684;2024-02-04T06:38:48;99504.25;;;4.29;68.38
84712;BME280;74937;44.534;18.684;2024-02-04T06:41:14;99511.06;;;4.33;67.74
84712;BME280;74937;44.534;18.684;2024-02-04T06:43:39;99517.84;;;4.38;67.56
84712;BME280;74937;44.534;18.684;2024-02-04T06:46:05;99518.19;;;4.50;66.92
84712;BME280;74937;44.534;18.684;2024-02-04T06:48:31;99526.06;;;4.89;66.62
84712;BME280;74937;44.534;18.684;2024-02-04T06:50:57;99526.97;;;5.65;63.17
84712;BME280;74937;44.534;18.684;2024-02-04T06:53:22;99533.59;;;6.45;60.19
84712;BME280;74937;44.534;18.684;2024-02-04T06:55:48;99529.75;;;7.35;57.37
84712;BME280;74937;44.534;18.684;2024-02-04T06:58:14;99531.50;;;8.30;54.23
84712;BME280;74937;44.534;18.684;2024-02-04T07:00:40;99524.38;;;9.20;51.01
84712;BME280;74937;44.534;18.684;2024-02-04T07:03:05;99524.56;;;9.87;49.58
84712;BME280;74937;44.534;18.684;2024-02-04T07:05:31;99518.03;;;10.34;47.75
84712;BME280;74937;44.534;18.684;2024-02-04T07:07:59;99508.19;;;10.88;45.59
84712;BME280;74937;44.534;18.684;2024-02-04T07:10:25;99503.97;;;11.24;45.04
84712;BME280;74937;44.534;18.684;2024-02-04T07:12:57;99509.16;;;9.40;49.51
84712;BME280;74937;44.534;18.684;2024-02-04T07:15:22;99520.19;;;9.73;49.18
84712;BME280;74937;44.534;18.684;2024-02-04T07:17:48;99518.06;;;10.47;47.39
84712;BME280;74937;44.534;18.684;2024-02-04T07:20:14;99518.50;;;11.43;45.27
84712;BME280;74937;44.534;18.684;2024-02-04T07:22:39;99521.09;;;12.29;42.77
84712;BME280;74937;44.534;18.684;2024-02-04T07:25:06;99525.19;;;12.68;41.60
84712;BME280;74937;44.534;18.684;2024-02-04T07:27:31;99532.75;;;13.19;40.57
84712;BME280;74937;44.534;18.684;2024-02-04T07:29:57;99528.66;;;13.71;39.52
84712;BME280;74937;44.534;18.684;2024-02-04T07:32:23;99535.66;;;13.61;39.55
84712;BME280;74937;44.534;18.684;2024-02-04T07:34:49;99536.13;;;13.54;39.56
84712;BME280;74937;44.534;18.684;2024-02-04T07:37:15;99538.38;;;13.14;39.98
84712;BME280;74937;44.534;18.684;2024-02-04T07:39:43;99536.00;;;12.65;41.04
84712;BME280;74937;44.534;18.684;2024-02-04T07:42:08;99539.78;;;12.49;42.02
84712;BME280;74937;44.534;18.684;2024-02-04T07:44:34;99543.97;;;12.41;42.67
84712;BME280;74937;44.534;18.684;2024-02-04T07:47:00;99543.13;;;12.40;42.39
84712;BME280;74937;44.534;18.684;2024-02-04T07:49:25;99540.44;;;12.64;42.84
84712;BME280;74937;44.534;18.684;2024-02-04T07:51:51;99546.00;;;12.72;42.23
84712;BME280;74937;44.534;18.684;2024-02-04T07:54:16;99551.91;;;12.17;43.39
84712;BME280;74937;44.534;18.684;2024-02-04T07:56:42;99550.16;;;11.55;45.02
84712;BME280;74937;44.534;18.684;2024-02-04T07:59:08;99546.50;;;11.94;44.56
84712;BME280;74937;44.534;18.684;2024-02-04T08:01:33;99535.78;;;12.33;43.93
84712;BME280;74937;44.534;18.684;2024-02-04T08:03:59;99530.63;;;12.77;42.99
84712;BME280;74937;44.534;18.684;2024-02-04T08:06:25;99533.25;;;13.35;41.80
84712;BME280;74937;44.534;18.684;2024-02-04T08:08:51;99523.09;;;13.96;40.62
84712;BME280;74937;44.534;18.684;2024-02-04T08:11:17;99523.31;;;13.93;40.34
84712;BME280;74937;44.534;18.684;2024-02-04T08:13:43;99534.00;;;13.37;42.15
84712;BME280;74937;44.534;18.684;2024-02-04T08:16:10;99540.34;;;13.35;42.15
84712;BME280;74937;44.534;18.684;2024-02-04T08:18:35;99543.34;;;13.75;41.39
84712;BME280;74937;44.534;18.684;2024-02-04T08:21:01;99534.59;;;14.06;40.72
84712;BME280;74937;44.534;18.684;2024-02-04T08:23:27;99526.84;;;14.58;39.75
84712;BME280;74937;44.534;18.684;2024-02-04T08:25:53;99538.75;;;15.05;38.69
84712;BME280;74937;44.534;18.684;2024-02-04T08:28:19;99531.97;;;15.43;38.14
84712;BME280;74937;44.534;18.684;2024-02-04T08:30:45;99532.53;;;15.77;37.27
84712;BME280;74937;44.534;18.684;2024-02-04T08:33:10;99527.50;;;15.43;37.95
84712;BME280;74937;44.534;18.684;2024-02-04T08:35:36;99538.22;;;15.11;38.41
84712;BME280;74937;44.534;18.684;2024-02-04T08:38:02;99537.28;;;14.71;39.50
84712;BME280;74937;44.534;18.684;2024-02-04T08:40:27;99537.28;;;14.38;40.36
84712;BME280;74937;44.534;18.684;2024-02-04T08:42:53;99531.22;;;14.16;40.98
84712;BME280;74937;44.534;18.684;2024-02-04T08:45:20;99546.94;;;13.85;41.39
84712;BME280;74937;44.534;18.684;2024-02-04T08:47:46;99556.47;;;13.54;42.01
84712;BME280;74937;44.534;18.684;2024-02-04T08:50:11;99542.09;;;13.00;43.27
84712;BME280;74937;44.534;18.684;2024-02-04T08:52:37;99538.56;;;12.42;44.68
84712;BME280;74937;44.534;18.684;2024-02-04T08:55:03;99532.81;;;12.13;45.71
84712;BME280;74937;44.534;18.684;2024-02-04T08:57:29;99528.00;;;11.94;46.44
84712;BME280;74937;44.534;18.684;2024-02-04T08:59:55;99523.91;;;11.90;46.72
84712;BME280;74937;44.534;18.684;2024-02-04T09:02:21;99528.56;;;11.87;47.09
84712;BME280;74937;44.534;18.684;2024-02-04T09:04:46;99523.34;;;11.98;47.15
84712;BME280;74937;44.534;18.684;2024-02-04T09:07:12;99517.22;;;11.98;47.31
84712;BME280;74937;44.534;18.684;2024-02-04T09:09:38;99526.16;;;12.08;47.06
84712;BME280;74937;44.534;18.684;2024-02-04T09:12:04;99534.28;;;12.05;47.12
84712;BME280;74937;44.534;18.684;2024-02-04T09:14:29;99530.66;;;11.94;47.51
84712;BME280;74937;44.534;18.684;2024-02-04T09:16:55;99527.66;;;11.99;47.72
84712;BME280;74937;44.534;18.684;2024-02-04T09:19:21;99520.00;;;12.55;46.27
84712;BME280;74937;44.534;18.684;2024-02-04T09:21:46;99527.53;;;12.95;45.63
84712;BME280;74937;44.534;18.684;2024-02-04T09:24:12;99526.38;;;13.55;44.11
84712;BME280;74937;44.534;18.684;2024-02-04T09:26:38;99540.44;;;13.89;43.41
84712;BME280;74937;44.534;18.684;2024-02-04T09:29:05;99535.56;;;14.17;41.98
84712;BME280;74937;44.534;18.684;2024-02-04T09:31:31;99539.06;;;14.06;42.18
84712;BME280;74937;44.534;18.684;2024-02-04T09:33:56;99537.81;;;13.78;42.65
84712;BME280;74937;44.534;18.684;2024-02-04T09:36:23;99534.03;;;14.03;42.68
84712;BME280;74937;44.534;18.684;2024-02-04T09:38:48;99537.41;;;14.48;41.21
84712;BME280;74937;44.534;18.684;2024-02-04T09:41:14;99533.22;;;14.87;40.17
84712;BME280;74937;44.534;18.684;2024-02-04T09:43:40;99533.38;;;15.16;39.83
84712;BME280;74937;44.534;18.684;2024-02-04T09:46:06;99539.47;;;15.38;39.68
84712;BME280;74937;44.534;18.684;2024-02-04T09:48:33;99531.88;;;15.54;39.51
84712;BME280;74937;44.534;18.684;2024-02-04T09:50:59;99519.66;;;15.72;38.82
84712;BME280;74937;44.534;18.684;2024-02-04T09:53:35;99513.13;;;15.86;38.56
84712;BME280;74937;44.534;18.684;2024-02-04T09:56:04;99512.91;;;16.18;37.96
84712;BME280;74937;44.534;18.684;2024-02-04T09:58:33;99521.72;;;16.48;37.94
84712;BME280;74937;44.534;18.684;2024-02-04T10:01:06;99521.16;;;16.54;37.62
84712;BME280;74937;44.534;18.684;2024-02-04T10:03:34;99518.06;;;16.88;36.99
84712;BME280;74937;44.534;18.684;2024-02-04T10:05:59;99525.88;;;17.08;36.42
84712;BME280;74937;44.534;18.684;2024-02-04T10:08:25;99525.53;;;17.21;36.10
84712;BME280;74937;44.534;18.684;2024-02-04T10:10:51;99514.50;;;17.16;36.19
84712;BME280;74937;44.534;18.684;2024-02-04T10:13:17;99518.00;;;17.17;36.15
84712;BME280;74937;44.534;18.684;2024-02-04T10:15:43;99520.09;;;17.13;36.30
84712;BME280;74937;44.534;18.684;2024-02-04T10:18:09;99520.00;;;17.05;36.47
84712;BME280;74937;44.534;18.684;2024-02-04T10:20:34;99524.78;;;16.82;36.66
84712;BME280;74937;44.534;18.684;2024-02-04T10:23:01;99530.25;;;16.51;38.03
84712;BME280;74937;44.534;18.684;2024-02-04T10:25:26;99523.97;;;16.33;38.14
84712;BME280;74937;44.534;18.684;2024-02-04T10:27:53;99529.00;;;16.26;37.95
84712;BME280;74937;44.534;18.684;2024-02-04T10:30:21;99534.19;;;16.38;37.88
84712;BME280;74937;44.534;18.684;2024-02-04T10:32:50;99533.34;;;16.47;37.60
84712;BME280;74937;44.534;18.684;2024-02-04T10:35:16;99527.88;;;16.87;37.20
84712;BME280;74937;44.534;18.684;2024-02-04T10:37:45;99521.72;;;17.33;36.52
84712;BME280;74937;44.534;18.684;2024-02-04T10:40:11;99514.44;;;17.90;35.24
84712;BME280;74937;44.534;18.684;2024-02-04T10:42:37;99505.41;;;18.19;34.46
84712;BME280;74937;44.534;18.684;2024-02-04T10:45:08;99507.41;;;18.17;35.30
84712;BME280;74937;44.534;18.684;2024-02-04T10:47:37;99502.34;;;18.50;33.66
84712;BME280;74937;44.534;18.684;2024-02-04T10:50:04;99495.59;;;18.99;33.51
84712;BME280;74937;44.534;18.684;2024-02-04T10:52:36;99496.00;;;19.46;31.57
84712;BME280;74937;44.534;18.684;2024-02-04T10:55:11;99488.66;;;19.83;31.46
84712;BME280;74937;44.534;18.684;2024-02-04T10:57:40;99493.59;;;19.61;31.38
84712;BME280;74937;44.534;18.684;2024-02-04T11:00:06;99495.31;;;19.10;31.34
84712;BME280;74937;44.534;18.684;2024-02-04T11:02:35;99480.56;;;18.54;32.01
84712;BME280;74937;44.534;18.684;2024-02-04T11:05:03;99472.78;;;18.25;32.77
84712;BME280;74937;44.534;18.684;2024-02-04T11:07:31;99472.50;;;18.10;33.09
84712;BME280;74937;44.534;18.684;2024-02-04T11:09:57;99469.31;;;18.07;33.47
84712;BME280;74937;44.534;18.684;2024-02-04T11:12:24;99469.44;;;18.05;34.12
84712;BME280;74937;44.534;18.684;2024-02-04T11:14:53;99465.31;;;18.11;33.35
84712;BME280;74937;44.534;18.684;2024-02-04T11:20:12;99456.31;;;18.12;33.46
84712;BME280;74937;44.534;18.684;2024-02-04T11:23:06;99457.03;;;17.96;34.06
84712;BME280;74937;44.534;18.684;2024-02-04T11:25:48;99447.13;;;17.88;33.37
84712;BME280;74937;44.534;18.684;2024-02-04T11:28:15;99430.41;;;17.86;33.70
84712;BME280;74937;44.534;18.684;2024-02-04T11:30:44;99438.88;;;17.82;33.41
84712;BME280;74937;44.534;18.684;2024-02-04T11:33:11;99438.06;;;17.81;33.64
84712;BME280;74937;44.534;18.684;2024-02-04T11:35:37;99442.59;;;17.71;33.09
84712;BME280;74937;44.534;18.684;2024-02-04T11:38:03;99441.06;;;17.69;33.26
84712;BME280;74937;44.534;18.684;2024-02-04T11:40:37;99429.91;;;17.55;32.89
84712;BME280;74937;44.534;18.684;2024-02-04T11:43:14;99444.44;;;17.43;33.04
84712;BME280;74937;44.534;18.684;2024-02-04T11:45:41;99437.63;;;17.31;33.37
84712;BME280;74937;44.534;18.684;2024-02-04T11:48:10;99445.03;;;17.27;33.12
84712;BME280;74937;44.534;18.684;2024-02-04T11:50:37;99442.19;;;17.11;33.55
84712;BME280;74937;44.534;18.684;2024-02-04T11:53:10;99446.69;;;17.01;33.87
84712;BME280;74937;44.534;18.684;2024-02-04T11:55:38;99437.03;;;17.00;33.97
84712;BME280;74937;44.534;18.684;2024-02-04T11:58:08;99429.03;;;17.09;34.09
84712;BME280;74937;44.534;18.684;2024-02-04T12:00:35;99427.72;;;17.14;34.22
84712;BME280;74937;44.534;18.684;2024-02-04T12:03:04;99413.41;;;17.15;34.19
84712;BME280;74937;44.534;18.684;2024-02-04T12:05:35;99403.63;;;17.15;33.87
84712;BME280;74937;44.534;18.684;2024-02-04T12:08:05;99399.00;;;17.17;34.92
84712;BME280;74937;44.534;18.684;2024-02-04T12:10:32;99389.66;;;17.31;34.21
84712;BME280;74937;44.534;18.684;2024-02-04T12:13:05;99382.13;;;17.26;34.53
84712;BME280;74937;44.534;18.684;2024-02-04T12:15:34;99377.09;;;17.23;34.79
84712;BME280;74937;44.534;18.684;2024-02-04T12:18:08;99384.38;;;17.21;35.00
84712;BME280;74937;44.534;18.684;2024-02-04T12:20:35;99382.28;;;17.25;34.93
84712;BME280;74937;44.534;18.684;2024-02-04T12:23:05;99384.25;;;17.23;35.09
84712;BME280;74937;44.534;18.684;2024-02-04T12:25:34;99379.06;;;17.21;35.50
84712;BME280;74937;44.534;18.684;2024-02-04T12:28:02;99373.19;;;17.18;35.90
84712;BME280;74937;44.534;18.684;2024-02-04T12:30:29;99364.38;;;17.17;35.57
84712;BME280;74937;44.534;18.684;2024-02-04T12:33:02;99377.88;;;17.06;35.74
84712;BME280;74937;44.534;18.684;2024-02-04T12:35:30;99369.22;;;17.04;36.37
84712;BME280;74937;44.534;18.684;2024-02-04T12:37:56;99372.31;;;16.99;35.75
84712;BME280;74937;44.534;18.684;2024-02-04T12:40:22;99367.72;;;16.92;35.58
84712;BME280;74937;44.534;18.684;2024-02-04T12:42:59;99362.66;;;16.98;35.42
84712;BME280;74937;44.534;18.684;2024-02-04T12:45:26;99360.72;;;16.91;35.48
84712;BME280;74937;44.534;18.684;2024-02-04T12:47:52;99362.84;;;16.87;35.33
84712;BME280;74937;44.534;18.684;2024-02-04T12:50:20;99370.28;;;16.84;35.01
84712;BME280;74937;44.534;18.684;2024-02-04T12:52:46;99371.28;;;16.83;34.61
84712;BME280;74937;44.534;18.684;2024-02-04T12:55:38;99369.88;;;16.78;34.52
84712;BME280;74937;44.534;18.684;2024-02-04T13:00:35;99368.38;;;16.76;34.25
84712;BME280;74937;44.534;18.684;2024-02-04T13:03:03;99362.56;;;16.80;34.25